createdAt,value
2022-08-26T00:03:06.220Z,100682.16
2022-08-26T00:08:09.593Z,100677.50
2022-08-26T00:13:14.736Z,100677.44
2022-08-26T00:18:22.282Z,100683.91
2022-08-26T00:23:24.622Z,100692.25
2022-08-26T00:28:28.596Z,100689.66
2022-08-26T00:33:30.328Z,100698.00
2022-08-26T00:38:31.990Z,100697.53
2022-08-26T00:43:47.477Z,100703.75
2022-08-26T00:48:53.724Z,100708.53
2022-08-26T00:54:07.618Z,100706.44
2022-08-26T00:59:13.829Z,100711.03
2022-08-26T01:04:19.397Z,100709.44
2022-08-26T01:09:22.283Z,100716.97
2022-08-26T01:14:26.451Z,100726.06
2022-08-26T01:19:37.748Z,100732.47
2022-08-26T01:24:42.708Z,100729.53
2022-08-26T01:29:46.970Z,100730.88
2022-08-26T01:34:51.963Z,100730.88
2022-08-26T01:39:57.463Z,100743.16
2022-08-26T01:45:16.754Z,100755.44
2022-08-26T01:50:28.057Z,100760.25
2022-08-26T01:55:34.152Z,100761.88
2022-08-26T02:00:37.574Z,100760.25
2022-08-26T02:05:39.474Z,100765.84
2022-08-26T02:10:41.375Z,100764.50
2022-08-26T02:15:44.505Z,100762.88
2022-08-26T02:20:46.681Z,100772.47
2022-08-26T02:26:06.949Z,100765.50
2022-08-26T02:31:08.720Z,100777.50
2022-08-26T02:36:13.383Z,100775.31
2022-08-26T02:41:15.460Z,100774.97
2022-08-26T02:46:21.491Z,100783.00
2022-08-26T02:51:31.506Z,100783.47
2022-08-26T02:56:35.346Z,100779.94
2022-08-26T03:01:37.268Z,100784.22
2022-08-26T03:06:39.284Z,100775.63
2022-08-26T03:11:43.147Z,100771.91
2022-08-26T03:16:45.347Z,100768.97
2022-08-26T03:21:50.818Z,100768.97
2022-08-26T03:26:54.051Z,100765.59
2022-08-26T03:31:55.856Z,100775.25
2022-08-26T03:36:57.467Z,100776.94
2022-08-26T03:41:59.642Z,100782.56
2022-08-26T03:47:01.218Z,100775.91
2022-08-26T03:52:04.556Z,100786.38
2022-08-26T03:57:07.276Z,100783.91
2022-08-26T04:02:11.576Z,100791.44
2022-08-26T04:07:13.554Z,100786.09
2022-08-26T04:12:16.641Z,100784.25
2022-08-26T04:17:19.190Z,100780.75
2022-08-26T04:22:26.725Z,100786.94
2022-08-26T04:27:30.989Z,100779.47
2022-08-26T04:32:32.674Z,100781.84
2022-08-26T04:37:35.576Z,100786.94
2022-08-26T04:42:37.276Z,100788.25
2022-08-26T04:47:38.985Z,100793.34
2022-08-26T04:52:40.700Z,100802.19
2022-08-26T04:57:42.588Z,100802.97
2022-08-26T05:02:44.245Z,100815.00
2022-08-26T05:07:45.792Z,100807.00
2022-08-26T05:12:47.882Z,100812.34
2022-08-26T05:17:49.574Z,100811.03
2022-08-26T05:22:51.324Z,100803.03
2022-08-26T05:27:53.153Z,100813.78
2022-08-26T05:32:55.511Z,100809.22
2022-08-26T05:37:58.309Z,100812.94
2022-08-26T05:42:59.953Z,100818.56
2022-08-26T05:48:01.942Z,100821.25
2022-08-26T05:53:03.951Z,100825.53
2022-08-26T05:58:06.084Z,100817.78
2022-08-26T06:03:08.091Z,100830.59
2022-08-26T06:08:10.008Z,100829.53
2022-08-26T06:13:12.865Z,100830.13
2022-08-26T06:18:17.331Z,100834.69
2022-08-26T06:23:19.255Z,100838.97
2022-08-26T06:28:20.855Z,100840.03
2022-08-26T06:33:23.926Z,100836.03
2022-08-26T06:38:25.500Z,100841.38
2022-08-26T06:43:28.395Z,100844.31
2022-08-26T06:48:30.429Z,100844.88
2022-08-26T06:53:32.013Z,100848.34
2022-08-26T06:58:35.429Z,100852.63
2022-08-26T07:03:39.526Z,100856.63
2022-08-26T07:08:41.499Z,100856.09
2022-08-26T07:13:43.851Z,100855.56
2022-08-26T07:18:46.604Z,100857.72
2022-08-26T07:23:48.828Z,100865.19
2022-08-26T07:28:53.484Z,100862.53
2022-08-26T07:33:55.294Z,100870.03
2022-08-26T07:38:57.350Z,100875.91
2022-08-26T07:43:59.108Z,100874.31
2022-08-26T07:49:00.758Z,100879.66
2022-08-26T07:54:02.549Z,100887.72
2022-08-26T07:59:13.709Z,100891.16
2022-08-26T08:04:17.310Z,100885.56
2022-08-26T08:09:19.663Z,100894.41
2022-08-26T08:14:23.884Z,100893.59
2022-08-26T08:19:36.867Z,100896.78
2022-08-26T08:24:40.944Z,100893.81
2022-08-26T08:29:43.272Z,100897.31
2022-08-26T08:34:44.870Z,100898.94
2022-08-26T08:39:46.461Z,100895.47
2022-08-26T08:44:55.498Z,100896.81
2022-08-26T08:50:11.523Z,100899.97
2022-08-26T08:55:18.038Z,100896.00
2022-08-26T09:00:20.716Z,100895.47
2022-08-26T09:05:37.787Z,100901.56
2022-08-26T09:10:44.247Z,100902.16
2022-08-26T09:15:58.128Z,100910.69
2022-08-26T09:21:06.303Z,100907.94
2022-08-26T09:26:24.791Z,100909.00
2022-08-26T09:31:34.194Z,100910.69
2022-08-26T09:36:46.600Z,100901.09
2022-08-26T09:42:03.093Z,100905.06
2022-08-26T09:47:07.141Z,100909.38
2022-08-26T09:52:23.778Z,100913.03
2022-08-26T09:57:29.476Z,100916.75
2022-08-26T10:02:34.062Z,100913.81
2022-08-26T10:07:38.451Z,100913.56
2022-08-26T10:12:49.227Z,100912.44
2022-08-26T10:18:14.092Z,100911.16
2022-08-26T10:23:19.782Z,100919.09
2022-08-26T10:28:49.447Z,100910.63
2022-08-26T10:33:52.537Z,100902.94
2022-08-26T10:39:01.426Z,100912.72
2022-08-26T10:44:07.934Z,100896.91
2022-08-26T10:49:14.341Z,100903.13
2022-08-26T10:54:39.243Z,100903.56
2022-08-26T10:59:56.040Z,100892.38
2022-08-26T11:05:01.641Z,100899.94
2022-08-26T11:10:11.253Z,100893.63
2022-08-26T11:15:24.499Z,100890.44
2022-08-26T11:20:41.886Z,100892.50
2022-08-26T11:25:56.063Z,100888.38
2022-08-26T11:30:58.720Z,100889.53
2022-08-26T11:36:00.591Z,100889.59
2022-08-26T11:41:20.839Z,100878.31
2022-08-26T11:46:28.857Z,100884.66
2022-08-26T11:51:30.421Z,100876.03
2022-08-26T11:56:35.906Z,100871.91
2022-08-26T12:01:44.445Z,100871.66
2022-08-26T12:06:50.059Z,100880.88
2022-08-26T12:11:52.727Z,100873.44
2022-08-26T12:17:13.623Z,100879.03
2022-08-26T12:22:22.879Z,100865.56
2022-08-26T12:27:27.928Z,100882.63
2022-08-26T12:32:30.444Z,100878.09
2022-08-26T12:37:35.270Z,100884.75
2022-08-26T12:42:42.138Z,100870.50
2022-08-26T12:47:45.881Z,100876.31
2022-08-26T12:53:05.430Z,100873.25
2022-08-26T12:58:16.068Z,100863.78
2022-08-26T13:03:36.121Z,100863.44
2022-08-26T13:08:58.514Z,100863.44
2022-08-26T13:14:18.427Z,100871.19
2022-08-26T13:19:25.585Z,100860.19
2022-08-26T13:24:42.428Z,100857.66
2022-08-26T13:29:43.981Z,100851.69
2022-08-26T13:34:51.422Z,100853.69
2022-08-26T13:39:53.593Z,100856.56
2022-08-26T13:44:55.173Z,100849.38
2022-08-26T13:49:56.755Z,100844.69
2022-08-26T13:54:59.625Z,100842.63
2022-08-26T14:00:01.171Z,100838.38
2022-08-26T14:05:02.775Z,100845.81
2022-08-26T14:10:04.708Z,100841.59
2022-08-26T14:15:07.568Z,100845.97
2022-08-26T14:20:14.010Z,100847.81
2022-08-26T14:25:15.690Z,100839.66
2022-08-26T14:30:17.779Z,100838.63
2022-08-26T14:35:22.580Z,100835.41
2022-08-26T14:40:29.145Z,100824.66
2022-08-26T14:45:31.100Z,100833.16
2022-08-26T14:50:32.752Z,100835.72
2022-08-26T14:55:38.112Z,100845.47
2022-08-26T15:00:39.691Z,100844.28
2022-08-26T15:05:46.074Z,100834.72
2022-08-26T15:10:49.459Z,100828.66
2022-08-26T15:15:51.131Z,100836.25
2022-08-26T15:20:52.783Z,100835.28
2022-08-26T15:25:54.443Z,100836.22
2022-08-26T15:30:56.087Z,100829.19
2022-08-26T15:36:02.963Z,100823.66
2022-08-26T15:41:06.422Z,100811.28
2022-08-26T15:46:11.180Z,100819.28
2022-08-26T15:51:28.060Z,100812.47
2022-08-26T15:56:32.942Z,100808.72
2022-08-26T16:01:36.111Z,100813.72
2022-08-26T16:06:39.687Z,100811.22
2022-08-26T16:11:41.239Z,100813.84
2022-08-26T16:16:42.847Z,100812.97
2022-08-26T16:21:45.202Z,100812.66
2022-08-26T16:26:46.789Z,100806.81
2022-08-26T16:31:48.376Z,100810.41
2022-08-26T16:36:50.235Z,100821.38
2022-08-26T16:41:51.869Z,100817.50
2022-08-26T16:46:58.537Z,100819.94
2022-08-26T16:52:00.401Z,100830.88
2022-08-26T16:57:02.726Z,100827.22
2022-08-26T17:02:04.460Z,100833.50
2022-08-26T17:07:06.129Z,100834.94
2022-08-26T17:12:07.898Z,100849.09
2022-08-26T17:17:09.466Z,100854.56
2022-08-26T17:22:11.630Z,100848.69
2022-08-26T17:27:13.274Z,100853.31
2022-08-26T17:32:14.893Z,100864.03
2022-08-26T17:37:18.477Z,100867.28
2022-08-26T17:42:20.061Z,100868.31
2022-08-26T17:47:21.744Z,100867.06
2022-08-26T17:52:23.567Z,100867.59
2022-08-26T17:57:26.202Z,100873.78
2022-08-26T18:07:32.893Z,100871.91
2022-08-26T18:12:41.080Z,100871.88
2022-08-26T18:17:43.078Z,100875.66
2022-08-26T18:22:46.383Z,100878.84
2022-08-26T18:27:47.931Z,100881.53
2022-08-26T18:32:50.633Z,100882.31
2022-08-26T18:37:52.222Z,100876.47
2022-08-26T18:42:54.121Z,100877.53
2022-08-26T18:47:55.989Z,100878.59
2022-08-26T18:52:57.741Z,100895.72
2022-08-26T18:57:59.415Z,100878.59
2022-08-26T19:03:01.272Z,100889.00
2022-08-26T19:08:04.074Z,100897.59
2022-08-26T19:13:07.611Z,100897.88
2022-08-26T19:18:11.409Z,100897.31
2022-08-26T19:23:30.929Z,100902.66
2022-08-26T19:28:34.425Z,100902.66
2022-08-26T19:33:37.574Z,100897.84
2022-08-26T19:38:39.309Z,100899.91
2022-08-26T19:43:41.202Z,100892.72
2022-08-26T19:48:43.636Z,100898.53
2022-08-26T19:53:46.829Z,100900.72
2022-08-26T19:58:49.587Z,100898.28
2022-08-26T20:03:51.376Z,100897.47
2022-08-26T20:08:53.875Z,100905.47
2022-08-26T20:13:56.732Z,100904.91
2022-08-26T20:18:58.626Z,100902.25
2022-08-26T20:24:05.335Z,100908.09
2022-08-26T20:29:08.966Z,100913.44
2022-08-26T20:34:12.160Z,100908.38
2022-08-26T20:39:15.318Z,100915.59
2022-08-26T20:44:17.233Z,100914.00
2022-08-26T20:49:19.859Z,100917.16
2022-08-26T20:54:28.014Z,100913.97
2022-08-26T20:59:30.391Z,100927.53
2022-08-26T21:04:32.058Z,100917.13
2022-08-26T21:09:33.760Z,100925.69
2022-08-26T21:14:35.381Z,100929.16
2022-08-26T21:19:37.725Z,100932.09
2022-08-26T21:24:39.593Z,100931.25
2022-08-26T21:29:41.430Z,100933.66
2022-08-26T21:34:43.275Z,100933.72
2022-08-26T21:39:45.219Z,100933.38
2022-08-26T21:44:52.663Z,100935.47
2022-08-26T21:49:54.701Z,100939.81
2022-08-26T21:54:58.240Z,100937.66
2022-08-26T22:00:00.508Z,100944.03
2022-08-26T22:05:07.501Z,100937.59
2022-08-26T22:10:09.414Z,100945.06
2022-08-26T22:15:12.229Z,100943.72
2022-08-26T22:20:16.624Z,100940.16
2022-08-26T22:25:19.152Z,100944.88
2022-08-26T22:30:20.832Z,100963.88
2022-08-26T22:35:28.979Z,100957.25
2022-08-26T22:40:31.342Z,100957.34
2022-08-26T22:45:33.456Z,100963.38
2022-08-26T22:50:35.436Z,100950.63
2022-08-26T22:55:37.777Z,100951.41
2022-08-26T23:00:40.066Z,100959.72
2022-08-26T23:05:44.984Z,100956.00
2022-08-26T23:10:48.339Z,100948.94
2022-08-26T23:15:59.127Z,100951.03
2022-08-26T23:21:01.094Z,100960.47
2022-08-26T23:26:06.190Z,100958.13
2022-08-26T23:31:08.435Z,100956.94
2022-08-26T23:36:12.650Z,100965.19
2022-08-26T23:41:17.507Z,100966.56
2022-08-26T23:46:19.480Z,100958.63
2022-08-26T23:51:21.517Z,100955.88
2022-08-26T23:56:23.515Z,100959.81
